Time;durP1;ratioP1;P1;durP2;ratioP2;P2;SDS_P1;SDS_P2;PMS_P1;PMS_P2;Temp;Humidity;BMP_temperature;BMP_pressure;BME280_temperature;BME280_humidity;BME280_pressure;Samples;Min_cycle;Max_cycle;Signal;HPM_P1;HPM_P2
2021/04/29 00:00:23;;;;;;;21.13;16.50;;;;;;;8.80;82.71;98299.25;5094714;28;20239;-84
2021/04/29 00:02:55;;;;;;;22.83;16.37;;;;;;;8.63;82.39;98277.06;5120899;22;20235;-84
2021/04/29 00:05:37;;;;;;;22.60;16.30;;;;;;;8.85;81.66;98302.03;5082292;28;20195;-84
2021/04/29 00:08:30;;;;;;;22.27;16.73;;;;;;;8.85;82.11;98299.34;5089731;28;20255;-84
2021/04/29 00:11:21;;;;;;;20.70;15.50;;;;;;;8.82;82.09;98297.97;5088738;23;20205;-84
2021/04/29 00:13:58;;;;;;;21.80;16.67;;;;;;;8.62;82.75;98275.44;5191249;22;20300;-84
2021/04/29 00:16:38;;;;;;;21.50;16.73;;;;;;;8.73;83.06;98299.41;5096331;28;20255;-84
2021/04/29 00:19:35;;;;;;;22.40;16.43;;;;;;;8.73;82.45;98285.22;5112520;22;20238;-83
2021/04/29 00:22:54;;;;;;;22.07;16.33;;;;;;;8.75;82.34;98304.50;5057942;28;20187;-84
2021/04/29 00:25:33;;;;;;;23.30;17.13;;;;;;;8.67;82.72;98275.53;5090566;22;20248;-83
2021/04/29 00:28:11;;;;;;;21.17;16.33;;;;;;;8.66;82.45;98277.38;5112831;23;20716;-81
2021/04/29 00:30:51;;;;;;;22.53;16.70;;;;;;;8.71;82.52;98284.69;5062849;28;20221;-83
2021/04/29 00:33:23;;;;;;;22.27;16.57;;;;;;;8.64;83.01;98292.81;5096274;28;20221;-83
2021/04/29 00:36:10;;;;;;;23.73;17.13;;;;;;;8.68;82.20;98283.28;5103446;22;20200;-83
2021/04/29 00:39:01;;;;;;;23.80;16.60;;;;;;;8.62;82.95;98296.78;5080327;28;20284;-84
2021/04/29 00:41:53;;;;;;;22.13;16.77;;;;;;;8.65;82.89;98299.78;5017593;28;20282;-83
2021/04/29 00:44:35;;;;;;;23.77;17.07;;;;;;;8.48;83.00;98282.13;5056206;22;20253;-83
2021/04/29 00:47:08;;;;;;;22.33;16.87;;;;;;;8.46;83.21;98284.19;5055544;28;20245;-83
2021/04/29 00:49:57;;;;;;;22.33;16.17;;;;;;;8.45;83.68;98288.72;5055681;28;20305;-83
2021/04/29 00:52:44;;;;;;;21.97;17.17;;;;;;;8.29;83.34;98292.13;5055474;28;20205;-84
2021/04/29 00:55:38;;;;;;;23.83;16.70;;;;;;;8.14;84.01;98279.28;5062177;23;20218;-84
2021/04/29 00:58:29;;;;;;;22.90;17.23;;;;;;;8.18;84.08;98296.44;5056382;28;20607;-83
2021/04/29 01:01:09;;;;;;;21.83;17.30;;;;;;;7.90;83.91;98251.06;5062830;22;20446;-84
2021/04/29 01:04:06;;;;;;;26.70;17.70;;;;;;;8.02;84.69;98291.06;5018904;28;20215;-82
2021/04/29 01:07:06;;;;;;;24.47;17.87;;;;;;;7.74;84.83;98268.63;5057465;23;20250;-84
2021/04/29 01:09:55;;;;;;;25.57;17.70;;;;;;;7.84;85.14;98273.31;5093517;23;20234;-79
2021/04/29 01:12:44;;;;;;;23.60;18.00;;;;;;;7.88;85.22;98280.66;5093741;28;20216;-83
2021/04/29 01:15:16;;;;;;;26.17;18.23;;;;;;;7.76;85.26;98279.03;5102480;22;20236;-83
2021/04/29 01:17:58;;;;;;;23.87;17.63;;;;;;;7.80;86.28;98291.66;5098874;22;20239;-83
2021/04/29 01:20:38;;;;;;;25.83;18.23;;;;;;;7.76;86.23;98289.69;5074373;28;20225;-83
2021/04/29 01:23:45;;;;;;;27.23;19.03;;;;;;;7.73;86.03;98295.50;5075366;28;20244;-83
2021/04/29 01:26:50;;;;;;;26.30;18.93;;;;;;;7.68;86.71;98290.06;5074657;28;20265;-83
2021/04/29 01:29:23;;;;;;;25.47;18.20;;;;;;;7.57;86.30;98275.69;5115939;23;20232;-83
2021/04/29 01:31:59;;;;;;;26.70;18.40;;;;;;;7.64;86.55;98287.03;5103808;22;20192;31
2021/04/29 01:34:39;;;;;;;26.33;18.87;;;;;;;7.56;86.54;98283.94;4964456;28;20228;-83
2021/04/29 01:37:32;;;;;;;27.47;19.87;;;;;;;7.68;86.84;98295.38;4996394;28;20253;-83
2021/04/29 01:40:14;;;;;;;26.77;19.23;;;;;;;7.61;87.04;98292.81;5050970;23;20220;-82
2021/04/29 01:42:49;;;;;;;28.30;19.47;;;;;;;7.46;87.30;98288.00;5089507;23;20204;-83
2021/04/29 01:45:26;;;;;;;28.00;18.70;;;;;;;7.37;87.33;98277.91;5053448;28;20237;-83
2021/04/29 01:47:58;;;;;;;28.87;19.67;;;;;;;7.48;87.51;98295.72;5054950;28;20253;-82
2021/04/29 01:50:40;;;;;;;28.17;19.73;;;;;;;7.39;87.55;98287.28;5037847;28;20222;-83
2021/04/29 01:53:11;;;;;;;28.73;20.17;;;;;;;7.42;87.97;98296.66;5175353;22;20228;-83
2021/04/29 01:55:42;;;;;;;26.27;18.83;;;;;;;7.34;88.12;98281.81;5078041;28;20207;-83
2021/04/29 01:58:17;;;;;;;29.77;20.30;;;;;;;7.39;87.94;98297.13;5095611;28;20215;-83
2021/04/29 02:00:47;;;;;;;29.47;19.63;;;;;;;7.35;87.80;98298.63;5094825;28;20219;-83
2021/04/29 02:03:22;;;;;;;29.37;19.83;;;;;;;7.22;88.65;98282.88;5078417;28;20205;-83
2021/04/29 02:05:51;;;;;;;29.57;20.10;;;;;;;7.18;88.93;98287.03;5095634;28;20182;-83
2021/04/29 02:08:37;;;;;;;26.97;18.90;;;;;;;7.16;88.92;98292.59;5091768;28;20220;-83
2021/04/29 02:11:16;;;;;;;29.90;20.23;;;;;;;7.18;88.60;98293.19;5094729;28;20228;-83
2021/04/29 02:13:50;;;;;;;28.67;19.97;;;;;;;7.04;88.75;98267.81;5051820;22;20230;-83
2021/04/29 02:16:44;;;;;;;31.73;20.70;;;;;;;7.14;89.12;98294.66;5017135;28;20227;-83
2021/04/29 02:19:13;;;;;;;28.27;19.40;;;;;;;7.21;88.73;98284.72;5110420;23;20221;-83
2021/04/29 02:21:46;;;;;;;30.17;19.80;;;;;;;7.13;88.71;98282.41;5115691;23;20228;-83
2021/04/29 02:24:18;;;;;;;30.23;19.93;;;;;;;7.15;89.19;98282.97;5089133;22;20231;-82
2021/04/29 02:27:08;;;;;;;28.93;19.43;;;;;;;7.13;89.09;98281.59;5080268;22;20230;-83
2021/04/29 02:29:41;;;;;;;30.83;20.53;;;;;;;7.20;88.73;98292.94;5074919;28;20181;-81
2021/04/29 02:32:26;;;;;;;30.83;20.60;;;;;;;7.15;89.70;98295.47;5055253;28;20292;-83
2021/04/29 02:35:06;;;;;;;30.50;20.60;;;;;;;7.17;89.52;98288.88;5072147;28;20221;-83
2021/04/29 02:37:40;;;;;;;32.73;21.77;;;;;;;7.15;89.22;98295.47;5051875;28;20274;-82
2021/04/29 02:40:18;;;;;;;34.63;21.30;;;;;;;7.19;89.33;98291.31;5037315;28;20226;-83
2021/04/29 02:43:05;;;;;;;33.30;21.70;;;;;;;7.14;89.50;98286.66;5036774;28;20226;-84
2021/04/29 02:45:35;;;;;;;34.13;21.20;;;;;;;7.13;90.03;98290.38;5038234;28;20273;-82
2021/04/29 02:48:07;;;;;;;30.53;21.63;;;;;;;7.07;90.23;98291.31;5047849;22;20228;-78
2021/04/29 02:50:44;;;;;;;33.57;21.60;;;;;;;6.99;90.54;98291.63;5041908;28;20252;-82
2021/04/29 02:53:29;;;;;;;29.87;21.20;;;;;;;6.95;90.43;98293.16;5105622;23;20230;-81
2021/04/29 02:56:16;;;;;;;31.93;21.03;;;;;;;6.80;90.42;98287.44;5114316;22;20244;-82
2021/04/29 02:59:05;;;;;;;30.83;21.00;;;;;;;6.81;90.82;98300.50;5081349;28;20208;-80
2021/04/29 03:01:39;;;;;;;34.43;22.20;;;;;;;6.67;91.02;98284.97;5097104;22;20574;-81
2021/04/29 03:04:57;;;;;;;34.43;22.13;;;;;;;6.70;90.52;98303.94;5088510;22;20238;-82
2021/04/29 03:08:14;;;;;;;27.43;20.63;;;;;;;6.63;91.09;98305.88;5065036;23;20235;-83
2021/04/29 03:11:20;;;;;;;34.20;20.73;;;;;;;6.53;91.22;98300.31;5059853;28;20201;-83
2021/04/29 03:14:04;;;;;;;30.80;20.77;;;;;;;6.43;90.82;98295.53;5058757;28;20281;-84
2021/04/29 03:17:06;;;;;;;31.00;20.80;;;;;;;6.43;90.43;98289.38;5037738;28;20221;-83
2021/04/29 03:20:10;;;;;;;30.97;20.97;;;;;;;6.45;90.53;98312.06;5185822;23;20240;-80
2021/04/29 03:23:00;;;;;;;28.47;19.73;;;;;;;6.17;90.22;98280.72;5067342;22;20229;-81
2021/04/29 03:25:47;;;;;;;32.53;20.53;;;;;;;6.20;90.21;98288.22;5044448;23;20447;-83
2021/04/29 03:28:38;;;;;;;27.73;19.27;;;;;;;6.13;90.67;98282.19;5083763;23;20212;-84
2021/04/29 03:31:20;;;;;;;27.57;19.50;;;;;;;6.18;90.54;98290.31;5100878;28;20205;-85
2021/04/29 03:34:29;;;;;;;25.00;17.50;;;;;;;6.24;90.38;98303.75;5100930;28;20223;-84
2021/04/29 03:37:15;;;;;;;22.70;16.87;;;;;;;6.18;90.12;98311.59;5144956;22;20169;-80
2021/04/29 03:40:40;;;;;;;21.63;14.47;;;;;;;6.16;90.25;98310.16;5044514;22;20255;-80
2021/04/29 03:43:58;;;;;;;24.17;16.27;;;;;;;6.12;89.33;98314.31;5058207;28;20221;-84
2021/04/29 03:46:38;;;;;;;22.17;15.27;;;;;;;5.96;89.21;98293.66;5060798;28;20174;-84
2021/04/29 03:49:43;;;;;;;21.63;15.70;;;;;;;5.97;88.30;98308.59;5120648;22;20223;-84
2021/04/29 03:52:30;;;;;;;24.70;16.43;;;;;;;6.02;88.29;98320.16;5062838;28;20190;-84
2021/04/29 03:55:27;;;;;;;21.83;16.63;;;;;;;6.02;88.15;98322.03;5106428;22;20228;-84
2021/04/29 03:58:06;;;;;;;25.03;17.30;;;;;;;5.99;88.17;98323.25;5120040;28;20228;-84
2021/04/29 04:00:54;;;;;;;22.97;17.60;;;;;;;5.99;87.59;98323.25;5117731;28;20208;-83
2021/04/29 04:04:14;;;;;;;22.70;16.60;;;;;;;6.03;86.85;98327.09;5120332;28;20210;-84
2021/04/29 04:07:23;;;;;;;28.67;17.43;;;;;;;5.99;86.82;98311.81;5096032;28;20204;-84
2021/04/29 04:10:10;;;;;;;26.90;17.80;;;;;;;5.93;86.76;98313.50;5096960;22;20220;-83
2021/04/29 04:13:24;;;;;;;23.80;16.70;;;;;;;6.04;86.56;98326.06;5078548;28;20253;-84
2021/04/29 04:16:12;;;;;;;22.80;16.67;;;;;;;6.11;86.45;98326.78;5102566;22;20197;-78
2021/04/29 04:19:18;;;;;;;23.77;18.13;;;;;;;6.19;85.92;98331.84;5063912;28;20255;-84
2021/04/29 04:22:07;;;;;;;23.23;18.43;;;;;;;6.20;85.61;98324.69;5122016;22;20257;-83
2021/04/29 04:24:50;;;;;;;24.87;17.77;;;;;;;6.34;85.55;98335.97;5058143;28;20213;-82
2021/04/29 04:27:49;;;;;;;23.73;17.67;;;;;;;6.48;85.23;98345.41;5091018;23;20228;-82
2021/04/29 04:30:40;;;;;;;25.27;18.23;;;;;;;6.54;85.06;98337.31;5111083;22;20232;-83
2021/04/29 04:33:14;;;;;;;21.30;17.23;;;;;;;6.56;83.98;98331.78;5176767;22;20232;-83
2021/04/29 04:35:49;;;;;;;22.27;17.17;;;;;;;6.75;84.02;98359.97;5075354;23;20222;-83
2021/04/29 04:38:42;;;;;;;21.50;17.17;;;;;;;6.86;84.13;98359.19;5058983;28;20272;-81
2021/04/29 04:41:14;;;;;;;22.80;17.93;;;;;;;6.94;83.71;98350.91;5073097;23;20225;-80
2021/04/29 04:44:12;;;;;;;22.37;17.73;;;;;;;7.08;82.39;98357.66;5074953;28;20225;-83
2021/04/29 04:47:16;;;;;;;23.50;18.40;;;;;;;7.27;82.55;98358.41;5114677;22;20240;-83
2021/04/29 04:51:07;;;;;;;22.50;17.37;;;;;;;7.42;81.39;98366.75;5068876;28;20188;-82
2021/04/29 04:54:02;;;;;;;23.57;17.83;;;;;;;7.48;81.08;98367.69;5079954;28;20216;-84
2021/04/29 04:56:37;;;;;;;22.20;16.80;;;;;;;7.59;81.19;98366.09;5097942;28;20229;-84
2021/04/29 04:59:31;;;;;;;25.90;18.67;;;;;;;7.69;80.95;98353.00;5089788;23;20308;-82
2021/04/29 05:02:35;;;;;;;23.57;17.07;;;;;;;7.94;79.92;98369.53;5112071;22;20225;-84
2021/04/29 05:05:21;;;;;;;25.23;18.10;;;;;;;8.14;80.15;98369.19;5114213;23;20239;-84
2021/04/29 05:08:13;;;;;;;24.27;17.80;;;;;;;8.23;79.76;98351.78;5117727;28;20275;-80
2021/04/29 05:11:00;;;;;;;22.93;18.00;;;;;;;8.34;79.99;98369.66;5117153;28;20250;-84
2021/04/29 05:13:33;;;;;;;26.53;18.17;;;;;;;8.45;80.10;98376.00;5100971;28;20246;-84
2021/04/29 05:16:19;;;;;;;28.50;20.07;;;;;;;8.55;79.49;98369.00;5117242;28;20267;-84
2021/04/29 05:19:11;;;;;;;24.53;18.47;;;;;;;8.55;79.51;98360.19;5116533;28;20168;-83
2021/04/29 05:21:45;;;;;;;28.63;20.00;;;;;;;8.71;79.56;98373.63;5107154;28;20212;-84
2021/04/29 05:24:58;;;;;;;25.37;19.83;;;;;;;8.82;80.00;98375.41;5096029;22;20236;-82
2021/04/29 05:27:31;;;;;;;28.83;20.73;;;;;;;9.10;79.05;98371.91;5075598;28;20213;-84
2021/04/29 05:30:06;;;;;;;26.93;20.50;;;;;;;9.29;78.60;98373.31;5077050;23;20223;31
2021/04/29 05:32:48;;;;;;;28.60;20.50;;;;;;;9.32;78.43;98341.81;5014964;28;20227;-84
2021/04/29 05:35:24;;;;;;;27.77;21.37;;;;;;;9.63;77.66;98362.63;4997423;28;20251;-83
2021/04/29 05:38:03;;;;;;;28.80;21.57;;;;;;;9.91;77.29;98378.59;4997038;28;20179;-84
2021/04/29 05:40:33;;;;;;;28.17;20.93;;;;;;;10.13;76.36;98379.44;4993700;28;20235;-84
2021/04/29 05:43:17;;;;;;;26.80;20.73;;;;;;;10.31;76.33;98382.94;4992367;28;20210;-83
2021/04/29 05:46:35;;;;;;;30.10;21.13;;;;;;;10.53;75.91;98389.91;4997031;28;20239;-84
2021/04/29 05:49:24;;;;;;;25.63;19.57;;;;;;;10.73;75.29;98388.53;4996411;28;20532;-84
2021/04/29 05:52:20;;;;;;;29.17;20.63;;;;;;;10.92;74.83;98379.06;5055776;23;20246;-84
2021/04/29 05:55:14;;;;;;;29.37;20.37;;;;;;;11.18;74.48;98385.53;5116769;28;20188;-84
2021/04/29 05:57:57;;;;;;;27.50;20.33;;;;;;;11.38;73.13;98373.09;5177460;22;20256;-84
2021/04/29 06:00:54;;;;;;;27.57;20.17;;;;;;;11.43;72.74;98357.06;5106399;23;20219;-81
2021/04/29 06:03:24;;;;;;;25.70;19.43;;;;;;;11.63;72.75;98369.81;5099611;28;20244;-81
2021/04/29 06:06:11;;;;;;;27.83;20.83;;;;;;;11.87;72.25;98395.28;5106056;22;20251;-83
2021/04/29 06:09:05;;;;;;;26.10;19.40;;;;;;;11.94;71.92;98392.38;5100726;22;20308;-80
2021/04/29 06:11:51;;;;;;;28.33;19.93;;;;;;;11.99;72.06;98397.75;5070482;23;20255;-83
2021/04/29 06:15:00;;;;;;;28.07;20.57;;;;;;;12.05;70.98;98394.03;5090566;28;20189;-84
2021/04/29 06:17:51;;;;;;;26.00;20.10;;;;;;;11.78;71.17;98369.16;5070543;22;20206;-82
2021/04/29 06:21:08;;;;;;;28.37;20.00;;;;;;;12.01;71.80;98418.97;5059340;23;20237;-84
2021/04/29 06:24:04;;;;;;;25.40;19.47;;;;;;;12.12;71.26;98428.72;5075306;28;20197;-84
2021/04/29 06:26:38;;;;;;;27.10;19.80;;;;;;;12.28;70.11;98427.75;5075575;28;20233;-83
2021/04/29 06:29:38;;;;;;;25.20;18.53;;;;;;;12.33;70.12;98425.91;5082663;23;20224;-79
2021/04/29 06:32:52;;;;;;;24.80;19.33;;;;;;;12.58;69.81;98427.13;3554820;22;20250;-80
2021/04/29 06:36:25;;;;;;;27.33;19.33;;;;;;;13.11;67.72;98447.53;5487087;23;20192;-82
2021/04/29 06:39:59;;;;;;;25.77;19.77;;;;;;;13.42;66.69;98443.84;5238681;22;20226;-77
2021/04/29 06:43:40;;;;;;;24.73;19.47;;;;;;;13.86;64.94;98456.78;5374385;22;20257;-77
2021/04/29 06:47:23;;;;;;;24.20;18.70;;;;;;;13.99;64.26;98443.63;5142001;22;20233;-76
2021/04/29 06:50:50;;;;;;;27.07;19.53;;;;;;;13.86;64.19;98446.00;5176782;23;20194;-77
2021/04/29 06:58:06;;;;;;;25.23;19.43;;;;;;;13.53;65.05;98423.91;5064500;28;20188;-80
2021/04/29 07:02:10;;;;;;;23.17;18.40;;;;;;;13.61;65.08;98434.19;5093108;28;20193;-80
2021/04/29 07:05:36;;;;;;;24.70;18.47;;;;;;;13.80;64.01;98423.69;5086149;22;20184;-79
2021/04/29 07:08:39;;;;;;;23.27;18.03;;;;;;;14.08;63.12;98460.03;5115645;22;20204;-77
2021/04/29 07:11:56;;;;;;;23.23;19.03;;;;;;;13.78;63.60;98466.22;5192700;23;20239;-77
2021/04/29 07:15:34;;;;;;;25.53;20.47;;;;;;;13.48;64.80;98455.41;5055568;23;20219;-78
2021/04/29 07:19:32;;;;;;;26.60;19.90;;;;;;;13.57;65.69;98462.72;5098983;22;20223;-80
2021/04/29 07:23:11;;;;;;;27.17;19.83;;;;;;;13.43;64.94;98450.84;5194969;22;20240;-78
2021/04/29 07:26:39;;;;;;;24.73;18.80;;;;;;;13.24;66.37;98447.03;5223267;22;20242;-76
2021/04/29 07:30:11;;;;;;;23.70;18.97;;;;;;;13.55;65.75;98450.56;5181918;23;20254;-78
2021/04/29 07:34:11;;;;;;;25.23;19.03;;;;;;;13.71;66.02;98454.09;5067978;22;20218;-79
2021/04/29 07:37:25;;;;;;;25.50;19.50;;;;;;;13.33;65.41;98439.25;5141790;22;20217;-77
2021/04/29 07:41:06;;;;;;;25.43;18.43;;;;;;;13.56;64.82;98446.81;5246058;22;20236;-78
2021/04/29 07:45:05;;;;;;;29.27;19.63;;;;;;;13.83;65.58;98446.56;5114990;23;20243;-78
2021/04/29 07:48:36;;;;;;;23.23;17.63;;;;;;;13.92;64.65;98447.63;5093375;23;20220;-78
2021/04/29 07:52:32;;;;;;;24.23;18.23;;;;;;;13.54;64.18;98405.91;5303142;22;20250;-79
2021/04/29 07:55:43;;;;;;;23.57;19.17;;;;;;;14.26;64.56;98439.81;5103185;28;20181;-78
2021/04/29 08:03:08;;;;;;;22.80;18.37;;;;;;;14.85;62.59;98450.72;5230934;22;20250;-80
2021/04/29 08:06:17;;;;;;;21.23;17.73;;;;;;;14.98;61.74;98450.94;5111403;22;20233;-81
2021/04/29 08:08:58;;;;;;;25.83;19.20;;;;;;;15.23;61.51;98460.81;5074595;28;20229;-86
2021/04/29 08:11:25;;;;;;;20.90;17.30;;;;;;;14.86;60.55;98455.84;5051647;28;20251;-84
2021/04/29 08:13:52;;;;;;;24.40;17.67;;;;;;;15.16;60.56;98460.31;5040539;28;20641;-86
2021/04/29 08:16:19;;;;;;;20.63;16.30;;;;;;;15.21;58.89;98465.66;5046143;28;20244;-87
2021/04/29 08:18:48;;;;;;;19.67;16.73;;;;;;;15.21;59.25;98459.47;5059891;28;20224;-85
2021/04/29 08:21:16;;;;;;;21.00;17.80;;;;;;;15.32;59.99;98447.53;5053716;28;20225;-88
2021/04/29 08:23:48;;;;;;;22.37;18.10;;;;;;;15.31;60.59;98464.81;5041788;28;20649;-83
2021/04/29 08:26:32;;;;;;;19.80;17.47;;;;;;;15.53;59.37;98454.47;5067401;28;20312;-87
2021/04/29 08:28:58;;;;;;;20.47;18.13;;;;;;;15.77;59.01;98455.34;5060025;28;20237;-87
2021/04/29 08:31:25;;;;;;;20.57;16.77;;;;;;;15.84;57.83;98457.75;5059514;28;20272;-88
2021/04/29 08:33:52;;;;;;;20.53;17.70;;;;;;;16.11;57.30;98458.06;5076263;28;20256;-87
2021/04/29 08:36:18;;;;;;;22.83;17.87;;;;;;;16.25;57.39;98460.91;5054973;28;20230;-87
2021/04/29 08:38:45;;;;;;;19.93;17.30;;;;;;;16.45;56.82;98459.91;5056397;28;20222;-88
2021/04/29 08:41:11;;;;;;;20.50;17.57;;;;;;;16.50;55.96;98446.34;5041840;28;20284;-86
2021/04/29 08:43:38;;;;;;;19.63;17.17;;;;;;;16.63;56.29;98451.91;5059445;28;20534;-87
2021/04/29 08:46:05;;;;;;;20.30;16.00;;;;;;;16.40;55.82;98452.66;5075830;28;20229;-87
2021/04/29 08:48:31;;;;;;;21.00;16.73;;;;;;;16.19;56.45;98462.06;5039293;28;20231;-87
2021/04/29 08:50:58;;;;;;;20.37;16.03;;;;;;;16.30;55.98;98453.56;5022750;28;20318;-88
2021/04/29 08:53:25;;;;;;;20.87;17.20;;;;;;;16.58;55.07;98459.25;5049316;28;20308;-86
2021/04/29 08:55:52;;;;;;;19.37;16.07;;;;;;;16.57;55.04;98455.72;5057753;28;20675;-87
2021/04/29 08:58:19;;;;;;;19.63;16.63;;;;;;;16.75;54.67;98470.44;5055942;28;20314;-84
2021/04/29 09:00:57;;;;;;;19.73;16.33;;;;;;;16.81;54.72;98469.28;5057702;28;20228;-87
2021/04/29 09:03:31;;;;;;;19.10;15.50;;;;;;;16.89;53.56;98478.69;5056459;28;20243;-87
2021/04/29 09:06:06;;;;;;;23.77;16.37;;;;;;;17.05;53.85;98485.50;5055605;28;20297;-87
2021/04/29 09:08:35;;;;;;;19.37;15.60;;;;;;;17.26;54.22;98480.66;5046361;28;20227;-85
2021/04/29 09:11:08;;;;;;;19.27;15.47;;;;;;;17.53;52.71;98483.53;5018723;28;20648;-88
2021/04/29 09:13:35;;;;;;;20.20;16.27;;;;;;;17.75;52.97;98469.44;5035220;28;20233;-85
2021/04/29 09:16:12;;;;;;;21.57;17.00;;;;;;;18.02;52.38;98485.81;5036260;28;20226;-86
2021/04/29 09:18:41;;;;;;;20.80;16.57;;;;;;;17.78;52.31;98483.19;5037220;28;20284;-85
2021/04/29 09:21:14;;;;;;;20.50;16.23;;;;;;;17.86;51.87;98469.00;5017280;28;20541;-85
2021/04/29 09:23:47;;;;;;;18.93;15.70;;;;;;;17.72;52.52;98476.25;5050044;28;20664;-86
2021/04/29 09:26:20;;;;;;;20.03;16.83;;;;;;;17.49;52.92;98471.69;5034452;28;20300;-87
2021/04/29 09:28:48;;;;;;;20.93;16.03;;;;;;;17.70;52.34;98466.78;5035803;28;20229;-86
2021/04/29 09:31:17;;;;;;;21.10;15.93;;;;;;;17.93;51.70;98474.03;5051483;28;20273;-85
2021/04/29 09:33:52;;;;;;;18.83;16.07;;;;;;;17.89;50.91;98465.69;5052061;28;20655;-86
2021/04/29 09:36:25;;;;;;;20.73;15.57;;;;;;;18.21;52.26;98480.34;5037832;28;20676;-86
2021/04/29 09:38:56;;;;;;;20.97;16.53;;;;;;;18.55;50.98;98469.22;5038894;28;20569;-85
2021/04/29 09:41:26;;;;;;;17.30;15.50;;;;;;;18.82;50.31;98480.09;5034132;28;20246;-87
2021/04/29 09:43:56;;;;;;;19.73;16.20;;;;;;;18.95;50.33;98473.84;5000900;28;20257;-84
2021/04/29 09:46:24;;;;;;;19.67;16.67;;;;;;;19.25;48.90;98481.41;5033681;28;20288;-85
2021/04/29 09:48:52;;;;;;;18.83;16.00;;;;;;;19.42;47.54;98471.78;5033714;28;20230;-86
2021/04/29 09:51:19;;;;;;;19.00;15.97;;;;;;;19.58;48.07;98467.69;5017855;28;20285;-86
2021/04/29 09:53:50;;;;;;;20.97;16.13;;;;;;;19.46;48.37;98479.06;5016363;28;20222;-86
2021/04/29 09:56:19;;;;;;;17.43;15.23;;;;;;;19.78;47.55;98483.53;5039196;28;20227;-83
2021/04/29 09:58:55;;;;;;;17.27;15.47;;;;;;;20.08;46.33;98471.13;5018110;28;20221;-86
2021/04/29 10:01:25;;;;;;;18.60;15.90;;;;;;;20.26;46.29;98477.47;5022323;28;20237;-84
2021/04/29 10:03:51;;;;;;;18.67;16.43;;;;;;;20.15;45.50;98476.94;5014763;28;20289;-85
2021/04/29 10:06:18;;;;;;;17.33;15.07;;;;;;;19.91;45.75;98462.84;5032283;28;20241;-84
2021/04/29 10:08:48;;;;;;;19.60;15.77;;;;;;;20.21;45.16;98481.13;5014750;28;20219;-86
2021/04/29 10:11:15;;;;;;;23.47;16.70;;;;;;;20.21;45.88;98476.47;5015446;28;20231;-81
2021/04/29 10:13:44;;;;;;;18.67;16.57;;;;;;;20.49;45.96;98473.63;5024739;28;20630;-85
2021/04/29 10:16:11;;;;;;;17.40;15.57;;;;;;;20.49;45.36;98460.03;5017504;28;20233;-86
2021/04/29 10:18:38;;;;;;;18.33;15.30;;;;;;;20.08;45.58;98452.88;5034218;28;20260;-84
2021/04/29 10:21:05;;;;;;;19.03;16.73;;;;;;;20.00;46.81;98467.22;5051029;28;20277;-85
2021/04/29 10:23:32;;;;;;;19.10;14.70;;;;;;;20.47;46.54;98471.25;5042626;28;20219;-84
2021/04/29 10:26:00;;;;;;;17.80;15.90;;;;;;;20.68;45.11;98471.50;5014031;28;20622;-85
2021/04/29 10:28:37;;;;;;;19.07;17.07;;;;;;;20.86;44.17;98467.72;5004337;28;20620;-84
2021/04/29 10:31:34;;;;;;;18.07;15.87;;;;;;;20.57;44.16;98472.91;5034070;28;20292;-84
2021/04/29 10:34:14;;;;;;;18.90;15.53;;;;;;;20.68;43.79;98471.50;5001221;28;20245;-79
2021/04/29 10:36:43;;;;;;;18.57;16.30;;;;;;;20.80;43.22;98470.91;5017918;28;20282;-84
2021/04/29 10:39:25;;;;;;;17.97;15.87;;;;;;;20.97;43.28;98469.06;5033730;28;20238;-86
2021/04/29 10:42:05;;;;;;;19.30;16.10;;;;;;;20.98;43.47;98469.88;5029756;28;20561;-85
2021/04/29 10:45:07;;;;;;;18.13;16.07;;;;;;;20.79;44.56;98470.13;5023884;28;20283;-85
2021/04/29 10:47:34;;;;;;;17.23;15.43;;;;;;;20.92;43.85;98454.78;5018682;28;20524;-85
2021/04/29 10:50:16;;;;;;;18.13;15.20;;;;;;;20.91;43.39;98464.06;5021966;28;20215;-85
2021/04/29 10:52:53;;;;;;;17.37;15.47;;;;;;;21.17;42.01;98458.72;5041317;28;20226;-83
2021/04/29 10:55:28;;;;;;;17.40;15.17;;;;;;;21.29;42.37;98475.25;5033104;28;20237;-85
2021/04/29 10:57:58;;;;;;;18.20;15.53;;;;;;;21.47;41.07;98466.00;5017728;28;20235;-85
2021/04/29 11:00:34;;;;;;;17.67;14.73;;;;;;;21.99;40.61;98469.56;5014894;28;20235;-85
2021/04/29 11:03:05;;;;;;;17.90;14.33;;;;;;;22.64;39.40;98465.75;5013962;28;20235;-85
2021/04/29 11:05:33;;;;;;;19.00;14.83;;;;;;;23.10;38.36;98465.72;5040280;28;20231;-84
2021/04/29 11:08:05;;;;;;;21.67;15.00;;;;;;;23.60;37.77;98465.00;5057017;28;20284;-85
2021/04/29 11:10:33;;;;;;;15.70;14.20;;;;;;;24.28;36.89;98458.13;5036253;28;20225;-85
2021/04/29 11:13:01;;;;;;;16.83;14.07;;;;;;;25.24;34.73;98469.59;5054356;28;20243;-86
2021/04/29 11:15:31;;;;;;;16.33;14.47;;;;;;;25.62;33.43;98456.31;5070360;28;20530;-84
2021/04/29 11:18:15;;;;;;;18.30;14.67;;;;;;;26.06;32.54;98454.44;5077243;28;20705;-86
2021/04/29 11:21:01;;;;;;;15.82;14.23;;;;;;;25.81;32.79;98459.22;5042931;28;20531;-85
2021/04/29 11:23:42;;;;;;;15.93;14.23;;;;;;;25.91;32.53;98457.13;5024404;28;20232;-85
2021/04/29 11:26:10;;;;;;;16.20;14.57;;;;;;;25.89;32.53;98452.00;5040286;28;20225;-83
2021/04/29 11:28:38;;;;;;;16.65;13.95;;;;;;;25.67;32.57;98456.06;5057157;28;20222;-86
2021/04/29 11:31:05;;;;;;;16.55;13.88;;;;;;;25.53;32.88;98444.63;5043685;28;20577;-86
2021/04/29 11:33:35;;;;;;;14.68;13.07;;;;;;;25.02;34.69;98453.59;5060600;28;20236;-86
2021/04/29 11:36:18;;;;;;;15.45;13.65;;;;;;;24.50;36.05;98446.78;5041330;28;20279;-87
2021/04/29 11:38:54;;;;;;;17.40;13.43;;;;;;;24.76;34.96;98442.94;5024061;28;20221;-86
2021/04/29 11:41:21;;;;;;;15.52;13.63;;;;;;;24.67;34.38;98445.00;5023875;28;20244;-86
2021/04/29 11:44:05;;;;;;;17.42;13.52;;;;;;;24.54;34.96;98460.63;5023880;28;20233;-85
2021/04/29 11:46:35;;;;;;;14.85;13.35;;;;;;;24.74;33.81;98445.22;5023322;28;20701;-86
2021/04/29 11:49:05;;;;;;;14.32;12.82;;;;;;;24.84;33.36;98442.03;5040487;28;20229;-86
2021/04/29 11:51:34;;;;;;;16.48;13.25;;;;;;;24.76;34.12;98445.69;5059755;28;20240;-86
2021/04/29 11:54:06;;;;;;;15.05;13.55;;;;;;;24.84;33.56;98448.31;5029017;28;20221;-86
2021/04/29 11:56:44;;;;;;;12.50;11.30;;;;;;;25.37;32.97;98447.31;5053417;28;20229;-84
2021/04/29 11:59:11;;;;;;;13.38;11.40;;;;;;;25.60;32.23;98442.16;5023089;28;20232;-86
2021/04/29 12:01:39;;;;;;;14.32;12.60;;;;;;;25.61;32.20;98454.72;5035525;28;20255;-85
2021/04/29 12:04:20;;;;;;;15.20;13.25;;;;;;;25.65;31.46;98446.59;5058993;28;20323;-85
2021/04/29 12:06:55;;;;;;;15.10;13.00;;;;;;;25.57;32.27;98448.31;5039198;28;20241;-86
2021/04/29 12:09:22;;;;;;;17.77;13.18;;;;;;;25.35;32.48;98435.06;5053714;28;20779;-86
2021/04/29 12:11:57;;;;;;;13.02;11.52;;;;;;;25.37;32.10;98444.56;5058971;28;20221;-86
2021/04/29 12:14:25;;;;;;;13.70;11.48;;;;;;;25.90;31.15;98450.84;5042232;28;20313;-86
2021/04/29 12:16:54;;;;;;;13.35;11.95;;;;;;;26.13;30.25;98442.88;5039264;28;20264;-86
2021/04/29 12:19:31;;;;;;;13.15;11.65;;;;;;;26.55;29.23;98437.75;5038763;28;20231;-85
2021/04/29 12:21:58;;;;;;;13.05;10.77;;;;;;;26.91;29.07;98440.28;5055508;28;20229;-86
2021/04/29 12:24:27;;;;;;;11.60;10.50;;;;;;;27.00;29.15;98420.84;5022283;28;20274;-86
2021/04/29 12:26:53;;;;;;;12.32;11.00;;;;;;;27.00;28.55;98440.09;5048647;28;20243;-86
2021/04/29 12:29:22;;;;;;;14.38;11.00;;;;;;;27.20;28.39;98432.69;5022186;28;20531;-86
2021/04/29 12:31:57;;;;;;;12.88;10.70;;;;;;;27.74;28.16;98438.25;5057865;28;20339;-87
2021/04/29 12:34:25;;;;;;;11.48;10.23;;;;;;;28.27;27.38;98436.59;5058948;28;20235;-87
2021/04/29 12:36:55;;;;;;;11.85;10.68;;;;;;;28.55;26.69;98430.81;5042213;28;20236;-86
2021/04/29 12:39:23;;;;;;;11.90;10.23;;;;;;;28.12;27.48;98418.19;5042749;28;20229;-86
2021/04/29 12:41:59;;;;;;;11.52;10.32;;;;;;;28.13;27.32;98411.53;5040447;28;20224;-86
2021/04/29 12:44:47;;;;;;;14.15;9.40;;;;;;;28.80;26.60;98421.00;5058527;28;20707;-87
2021/04/29 12:47:26;;;;;;;11.50;9.98;;;;;;;28.59;26.71;98417.88;5052463;28;20228;-86
2021/04/29 12:50:05;;;;;;;12.18;10.95;;;;;;;28.03;27.04;98426.66;5022022;28;20232;-86
2021/04/29 12:52:44;;;;;;;11.65;10.50;;;;;;;27.70;27.16;98415.38;5037972;28;20248;-85